createdAt,value
2022-10-05T00:02:36.650Z,10.83
2022-10-05T00:05:38.834Z,10.00
2022-10-05T00:08:40.547Z,10.07
2022-10-05T00:11:42.811Z,9.30
2022-10-05T00:14:46.203Z,8.70
2022-10-05T00:17:47.864Z,8.90
2022-10-05T00:20:49.459Z,7.73
2022-10-05T00:23:52.119Z,7.90
2022-10-05T00:26:57.735Z,9.80
2022-10-05T00:30:07.742Z,8.87
2022-10-05T00:33:09.367Z,8.27
2022-10-05T00:36:11.151Z,9.00
2022-10-05T00:39:12.797Z,10.50
2022-10-05T00:42:22.084Z,8.80
2022-10-05T00:45:51.389Z,10.27
2022-10-05T00:49:24.740Z,11.20
2022-10-05T00:52:45.532Z,11.33
2022-10-05T00:55:53.302Z,11.00
2022-10-05T00:59:20.542Z,11.97
2022-10-05T01:02:46.630Z,12.17
2022-10-05T01:06:16.354Z,11.30
2022-10-05T01:09:44.831Z,10.47
2022-10-05T01:12:58.336Z,10.53
2022-10-05T01:16:07.453Z,10.80
2022-10-05T01:19:21.429Z,10.63
2022-10-05T01:22:57.959Z,10.37
2022-10-05T01:26:44.120Z,10.80
2022-10-05T01:29:59.891Z,11.00
2022-10-05T01:33:20.137Z,11.10
2022-10-05T01:36:52.572Z,10.97
2022-10-05T01:40:15.563Z,9.77
2022-10-05T01:43:55.874Z,11.07
2022-10-05T01:47:21.426Z,9.83
2022-10-05T01:50:37.221Z,11.07
2022-10-05T01:54:22.353Z,10.47
2022-10-05T01:57:46.050Z,10.73
2022-10-05T02:00:56.530Z,9.43
2022-10-05T02:04:43.602Z,11.73
2022-10-05T02:07:58.601Z,10.27
2022-10-05T02:11:07.514Z,11.03
2022-10-05T02:14:15.089Z,12.37
2022-10-05T02:17:27.445Z,11.30
2022-10-05T02:20:32.330Z,13.63
2022-10-05T02:23:38.347Z,11.40
2022-10-05T02:26:41.467Z,12.70
2022-10-05T02:29:47.692Z,13.60
2022-10-05T02:33:32.396Z,13.40
2022-10-05T02:36:36.305Z,12.80
2022-10-05T02:40:04.780Z,12.63
2022-10-05T02:43:27.755Z,12.27
2022-10-05T02:46:58.081Z,11.53
2022-10-05T02:50:27.038Z,12.10
2022-10-05T02:53:47.330Z,11.20
2022-10-05T02:57:07.892Z,12.50
2022-10-05T03:00:14.373Z,12.60
2022-10-05T03:03:31.969Z,13.63
2022-10-05T03:06:42.175Z,13.90
2022-10-05T03:10:02.665Z,13.30
2022-10-05T03:13:21.701Z,16.10
2022-10-05T03:16:58.187Z,15.90
2022-10-05T03:20:31.267Z,15.67
2022-10-05T03:24:01.612Z,15.53
2022-10-05T03:27:22.805Z,16.40
2022-10-05T03:30:26.541Z,17.13
2022-10-05T03:33:34.716Z,18.00
2022-10-05T03:36:54.648Z,19.87
2022-10-05T03:40:22.398Z,20.50
2022-10-05T03:43:52.313Z,20.07
2022-10-05T03:47:18.996Z,19.40
2022-10-05T03:50:51.665Z,18.60
2022-10-05T03:53:59.780Z,20.20
2022-10-05T03:57:16.826Z,20.07
2022-10-05T04:00:25.554Z,21.47
2022-10-05T04:03:32.690Z,19.80
2022-10-05T04:06:38.440Z,20.57
2022-10-05T04:09:45.555Z,25.37
2022-10-05T04:12:52.326Z,23.50
2022-10-05T04:15:57.202Z,25.37
2022-10-05T04:19:32.561Z,23.07
2022-10-05T04:22:42.826Z,22.10
2022-10-05T04:25:56.440Z,23.63
2022-10-05T04:29:35.430Z,23.07
2022-10-05T04:32:45.014Z,23.03
2022-10-05T04:36:09.545Z,25.43
2022-10-05T04:39:50.562Z,23.23
2022-10-05T04:43:16.627Z,30.10
2022-10-05T04:46:39.612Z,26.70
2022-10-05T04:49:55.940Z,31.03
2022-10-05T04:53:17.584Z,23.80
2022-10-05T04:56:26.107Z,23.20
2022-10-05T04:59:51.527Z,23.30
2022-10-05T05:03:21.475Z,24.63
2022-10-05T05:06:28.911Z,24.90
2022-10-05T05:09:54.731Z,21.83
2022-10-05T05:13:10.345Z,23.63
2022-10-05T05:16:37.127Z,23.47
2022-10-05T05:19:39.112Z,22.00
2022-10-05T05:22:45.910Z,21.73
2022-10-05T05:26:22.771Z,22.80
2022-10-05T05:30:09.040Z,24.43
2022-10-05T05:33:33.483Z,23.70
2022-10-05T05:37:01.462Z,26.40
2022-10-05T05:40:21.818Z,24.07
2022-10-05T05:43:53.327Z,23.97
2022-10-05T05:47:19.495Z,32.20
2022-10-05T05:50:53.309Z,25.70
2022-10-05T05:53:59.530Z,24.40
2022-10-05T05:57:21.796Z,26.60
2022-10-05T06:00:26.275Z,24.57
2022-10-05T06:03:37.417Z,23.43
2022-10-05T06:06:44.795Z,24.30
2022-10-05T06:10:15.660Z,25.37
2022-10-05T06:13:26.700Z,25.70
2022-10-05T06:16:41.874Z,23.87
2022-10-05T06:19:45.825Z,23.27
2022-10-05T06:22:49.920Z,22.67
2022-10-05T06:26:39.759Z,24.90
2022-10-05T06:30:03.523Z,23.50
2022-10-05T06:33:19.298Z,21.80
2022-10-05T06:36:39.851Z,21.53
2022-10-05T06:40:12.582Z,22.37
2022-10-05T06:43:51.653Z,20.60
2022-10-05T06:47:18.153Z,19.90
2022-10-05T06:50:52.691Z,19.60
2022-10-05T06:54:27.244Z,18.03
2022-10-05T06:57:47.767Z,17.10
2022-10-05T07:00:55.974Z,18.70
2022-10-05T07:04:04.308Z,20.10
2022-10-05T07:07:23.158Z,21.73
2022-10-05T07:10:59.981Z,18.80
2022-10-05T07:14:25.760Z,20.27
2022-10-05T07:17:52.465Z,21.33
2022-10-05T07:21:19.091Z,20.20
2022-10-05T07:24:36.609Z,23.40
2022-10-05T07:27:51.761Z,22.33
2022-10-05T07:31:00.463Z,21.20
2022-10-05T07:34:14.220Z,22.77
2022-10-05T07:37:57.387Z,22.50
2022-10-05T07:41:11.816Z,22.30
2022-10-05T07:44:38.387Z,24.00
2022-10-05T07:47:51.024Z,20.80
2022-10-05T07:51:18.965Z,22.60
2022-10-05T07:54:42.492Z,23.00
2022-10-05T07:58:02.279Z,23.00
2022-10-05T08:01:24.866Z,23.03
2022-10-05T08:04:39.427Z,24.10
2022-10-05T08:07:43.579Z,22.97
2022-10-05T08:11:09.393Z,22.30
2022-10-05T08:14:22.071Z,24.43
2022-10-05T08:17:42.510Z,24.07
2022-10-05T08:20:52.973Z,24.33
2022-10-05T08:23:58.079Z,22.57
2022-10-05T08:27:22.027Z,20.40
2022-10-05T08:30:24.557Z,22.60
2022-10-05T08:33:27.835Z,22.00
2022-10-05T08:36:51.622Z,24.53
2022-10-05T08:40:33.677Z,25.57
2022-10-05T08:44:21.239Z,23.57
2022-10-05T08:47:39.636Z,25.97
2022-10-05T08:51:32.628Z,23.00
2022-10-05T08:54:38.485Z,25.87
2022-10-05T08:58:17.743Z,27.20
2022-10-05T09:01:31.405Z,25.50
2022-10-05T09:05:08.610Z,25.37
2022-10-05T09:08:49.454Z,26.00
2022-10-05T09:12:17.096Z,27.23
2022-10-05T09:15:56.417Z,25.20
2022-10-05T09:19:07.191Z,26.60
2022-10-05T09:22:28.308Z,27.17
2022-10-05T09:25:44.819Z,28.97
2022-10-05T09:29:04.966Z,29.10
2022-10-05T09:32:53.165Z,30.07
2022-10-05T09:36:32.357Z,29.70
2022-10-05T09:40:11.537Z,30.67
2022-10-05T09:43:29.640Z,36.03
2022-10-05T09:46:52.961Z,38.53
2022-10-05T09:50:37.820Z,37.47
2022-10-05T09:54:03.382Z,37.10
2022-10-05T09:57:23.011Z,37.33
2022-10-05T10:01:03.878Z,36.50
2022-10-05T10:04:38.327Z,35.20
2022-10-05T10:08:24.404Z,31.20
2022-10-05T10:11:54.479Z,30.70
2022-10-05T10:15:20.984Z,28.50
2022-10-05T10:18:45.880Z,26.23
2022-10-05T10:22:09.370Z,23.70
2022-10-05T10:25:53.795Z,22.77
2022-10-05T10:29:15.090Z,20.97
2022-10-05T10:32:33.144Z,21.33
2022-10-05T10:35:55.423Z,18.50
2022-10-05T10:39:02.471Z,18.57
2022-10-05T10:42:43.450Z,17.30
2022-10-05T10:45:59.030Z,18.97
2022-10-05T10:49:20.387Z,19.50
2022-10-05T10:52:28.261Z,16.43
2022-10-05T10:55:47.406Z,15.67
2022-10-05T10:59:06.822Z,14.47
2022-10-05T11:02:44.275Z,13.70
2022-10-05T11:06:12.261Z,14.40
2022-10-05T11:09:35.526Z,13.90
2022-10-05T11:12:58.045Z,10.50
2022-10-05T11:16:18.766Z,11.20
2022-10-05T11:20:05.370Z,9.60
2022-10-05T11:23:29.628Z,9.50
2022-10-05T11:26:55.671Z,10.70
2022-10-05T11:30:11.583Z,9.77
2022-10-05T11:33:34.839Z,9.90
2022-10-05T11:36:55.367Z,9.30
2022-10-05T11:40:16.613Z,9.27
2022-10-05T11:43:33.372Z,8.50
2022-10-05T11:47:12.546Z,6.83
2022-10-05T11:50:21.228Z,7.80
2022-10-05T11:53:41.351Z,8.60
2022-10-05T11:57:02.806Z,7.07
2022-10-05T12:00:21.704Z,8.00
2022-10-05T12:03:36.510Z,7.70
2022-10-05T12:07:02.765Z,7.23
2022-10-05T12:10:31.025Z,6.43
2022-10-05T12:14:02.812Z,6.00
2022-10-05T12:17:27.165Z,6.00
2022-10-05T12:20:37.875Z,6.60
2022-10-05T12:23:54.713Z,7.67
2022-10-05T12:27:01.277Z,6.53
2022-10-05T12:30:18.412Z,6.30
2022-10-05T12:33:26.675Z,6.90
2022-10-05T12:37:05.990Z,6.60
2022-10-05T12:40:10.745Z,7.20
2022-10-05T12:43:40.357Z,7.67
2022-10-05T12:46:51.408Z,7.67
2022-10-05T12:50:19.268Z,7.60
2022-10-05T12:53:32.752Z,8.80
2022-10-05T12:56:44.466Z,7.00
2022-10-05T13:00:10.687Z,7.50
2022-10-05T13:03:26.373Z,7.53
2022-10-05T13:06:44.410Z,7.47
2022-10-05T13:10:02.603Z,7.30
2022-10-05T13:13:14.508Z,7.73
2022-10-05T13:16:56.433Z,7.70
2022-10-05T13:20:02.362Z,7.60
2022-10-05T13:23:22.858Z,7.80
2022-10-05T13:26:46.050Z,5.80
2022-10-05T13:30:12.038Z,7.40
2022-10-05T13:33:24.470Z,8.60
2022-10-05T13:36:38.280Z,6.60
2022-10-05T13:40:01.555Z,8.60
2022-10-05T13:43:21.224Z,7.90
2022-10-05T13:46:49.332Z,8.20
2022-10-05T13:50:05.560Z,8.30
2022-10-05T13:53:12.959Z,5.97
2022-10-05T13:56:31.458Z,6.60
2022-10-05T13:59:51.082Z,6.47
2022-10-05T14:02:56.143Z,5.70
2022-10-05T14:06:01.299Z,6.30
2022-10-05T14:09:03.698Z,6.80
2022-10-05T14:12:05.224Z,7.70
2022-10-05T14:15:41.979Z,6.90
2022-10-05T14:18:56.481Z,6.20
2022-10-05T14:22:10.972Z,5.13
2022-10-05T14:25:17.963Z,5.50
2022-10-05T14:28:38.300Z,4.83
2022-10-05T14:31:49.813Z,5.50
2022-10-05T14:35:05.129Z,5.80
2022-10-05T14:38:29.341Z,4.83
2022-10-05T14:41:36.213Z,4.57
2022-10-05T14:44:37.844Z,4.53
2022-10-05T14:47:53.380Z,4.50
2022-10-05T14:50:57.910Z,4.87
2022-10-05T14:54:01.483Z,5.17
2022-10-05T14:57:25.555Z,4.90
2022-10-05T15:00:28.960Z,4.90
2022-10-05T15:03:42.140Z,4.00
2022-10-05T15:06:55.522Z,4.50
2022-10-05T15:10:26.797Z,4.47
2022-10-05T15:13:32.706Z,4.70
2022-10-05T15:16:38.917Z,4.30
2022-10-05T15:19:47.502Z,4.87
2022-10-05T15:23:26.884Z,4.40
2022-10-05T15:26:36.109Z,4.80
2022-10-05T15:30:09.104Z,4.63
2022-10-05T15:33:38.218Z,4.43
2022-10-05T15:36:52.675Z,4.10
2022-10-05T15:40:03.555Z,4.20
2022-10-05T15:43:12.510Z,4.03
2022-10-05T15:46:36.009Z,3.73
2022-10-05T15:49:57.117Z,3.77
2022-10-05T15:53:23.116Z,3.63
2022-10-05T15:56:38.336Z,4.10
2022-10-05T15:59:56.397Z,4.07
2022-10-05T16:03:12.406Z,3.83
2022-10-05T16:06:51.545Z,3.40
2022-10-05T16:10:17.187Z,4.10
2022-10-05T16:13:38.619Z,3.80
2022-10-05T16:16:43.001Z,3.80
2022-10-05T16:20:14.515Z,3.90
2022-10-05T16:23:40.757Z,4.50
2022-10-05T16:26:54.097Z,4.00
2022-10-05T16:30:13.493Z,4.10
2022-10-05T16:33:29.151Z,4.70
2022-10-05T16:36:47.838Z,3.57
2022-10-05T16:40:01.245Z,4.20
2022-10-05T16:43:32.123Z,4.00
2022-10-05T16:46:45.879Z,4.40
2022-10-05T16:50:01.627Z,4.10
2022-10-05T16:53:17.331Z,4.60
2022-10-05T16:56:25.189Z,4.60
2022-10-05T16:59:42.232Z,4.30
2022-10-05T17:03:27.265Z,5.93
2022-10-05T17:06:43.988Z,6.20
2022-10-05T17:10:08.090Z,6.37
2022-10-05T17:13:31.279Z,6.00
2022-10-05T17:16:52.494Z,5.97
2022-10-05T17:20:23.497Z,5.10
2022-10-05T17:23:53.662Z,5.73
2022-10-05T17:27:33.779Z,4.70
2022-10-05T17:31:06.332Z,5.47
2022-10-05T17:34:38.580Z,5.20
2022-10-05T17:38:05.280Z,6.00
2022-10-05T17:41:17.484Z,6.47
2022-10-05T17:44:21.719Z,6.50
2022-10-05T17:47:58.510Z,6.87
2022-10-05T17:51:18.645Z,6.77
2022-10-05T17:54:41.843Z,7.17
2022-10-05T17:57:43.877Z,5.97
2022-10-05T18:00:57.632Z,5.90
2022-10-05T18:04:11.253Z,5.13
2022-10-05T18:07:22.582Z,4.50
2022-10-05T18:10:28.724Z,4.43
2022-10-05T18:14:19.547Z,4.83
2022-10-05T18:17:47.324Z,4.20
2022-10-05T18:21:24.076Z,4.17
2022-10-05T18:25:04.211Z,3.97
2022-10-05T18:28:35.967Z,3.90
2022-10-05T18:31:46.992Z,3.40
2022-10-05T18:35:11.654Z,3.43
2022-10-05T18:38:34.231Z,3.00
2022-10-05T18:41:54.883Z,3.00
2022-10-05T18:45:11.094Z,3.57
2022-10-05T18:48:36.377Z,4.13
2022-10-05T18:51:58.773Z,3.50
2022-10-05T18:55:20.199Z,3.47
2022-10-05T18:59:11.062Z,2.60
2022-10-05T19:02:24.029Z,3.20
2022-10-05T19:05:54.157Z,3.00
2022-10-05T19:09:06.034Z,3.40
2022-10-05T19:12:29.562Z,2.80
2022-10-05T19:15:58.994Z,3.03
2022-10-05T19:19:29.383Z,2.80
2022-10-05T19:22:55.829Z,2.87
2022-10-05T19:26:02.531Z,2.40
2022-10-05T19:29:12.985Z,2.40
2022-10-05T19:32:33.392Z,2.67
2022-10-05T19:36:00.871Z,2.37
2022-10-05T19:39:40.116Z,2.40
2022-10-05T19:43:26.827Z,2.80
2022-10-05T19:46:30.606Z,2.60
2022-10-05T19:49:48.770Z,2.83
2022-10-05T19:52:57.202Z,2.60
2022-10-05T19:56:21.342Z,2.37
2022-10-05T19:59:28.033Z,2.77
2022-10-05T20:02:32.464Z,3.00
2022-10-05T20:05:34.385Z,2.70
2022-10-05T20:08:44.741Z,2.53
2022-10-05T20:11:51.402Z,2.70
2022-10-05T20:15:26.438Z,2.63
2022-10-05T20:19:30.202Z,2.83
2022-10-05T20:22:49.039Z,2.63
2022-10-05T20:26:12.798Z,2.50
2022-10-05T20:29:14.458Z,2.63
2022-10-05T20:32:20.787Z,3.10
2022-10-05T20:35:22.884Z,2.37
2022-10-05T20:38:24.784Z,3.07
2022-10-05T20:41:30.245Z,2.97
2022-10-05T20:44:32.012Z,2.70
2022-10-05T20:47:33.719Z,3.20
2022-10-05T20:50:36.992Z,3.13
2022-10-05T20:53:38.727Z,2.70
2022-10-05T20:56:42.492Z,3.40
2022-10-05T20:59:44.489Z,2.93
2022-10-05T21:02:46.844Z,3.70
2022-10-05T21:05:48.441Z,3.10
2022-10-05T21:08:54.414Z,3.60
2022-10-05T21:11:56.076Z,3.30
2022-10-05T21:14:59.757Z,3.20
2022-10-05T21:18:01.356Z,3.20
2022-10-05T21:21:02.993Z,3.27
2022-10-05T21:24:05.502Z,2.77
2022-10-05T21:27:08.082Z,2.83
2022-10-05T21:30:10.010Z,3.77
2022-10-05T21:33:11.704Z,3.87
2022-10-05T21:36:14.573Z,4.07
2022-10-05T21:39:16.462Z,3.20
2022-10-05T21:42:20.007Z,3.87
2022-10-05T21:45:25.236Z,3.70
2022-10-05T21:48:27.581Z,3.60
2022-10-05T21:51:29.501Z,3.90
2022-10-05T21:54:32.557Z,4.00
2022-10-05T21:57:35.505Z,3.30
2022-10-05T22:00:37.174Z,3.57
2022-10-05T22:03:38.871Z,3.43
2022-10-05T22:06:40.503Z,3.50
2022-10-05T22:09:42.206Z,3.37
2022-10-05T22:12:46.216Z,3.23
2022-10-05T22:15:47.822Z,4.30
2022-10-05T22:18:50.108Z,3.53
2022-10-05T22:21:51.695Z,3.57
2022-10-05T22:24:54.005Z,3.90
2022-10-05T22:27:55.799Z,4.53
2022-10-05T22:30:59.484Z,4.40
2022-10-05T22:34:01.141Z,4.20
2022-10-05T22:37:04.090Z,4.40
2022-10-05T22:40:07.460Z,4.63
2022-10-05T22:43:09.044Z,3.77
2022-10-05T22:46:15.462Z,3.97
2022-10-05T22:49:17.306Z,4.13
2022-10-05T22:52:18.987Z,4.80
2022-10-05T22:55:21.039Z,3.53
2022-10-05T22:58:22.732Z,4.03
2022-10-05T23:01:24.511Z,4.27
2022-10-05T23:04:26.497Z,5.10
2022-10-05T23:07:28.318Z,4.90
2022-10-05T23:10:29.983Z,4.40
2022-10-05T23:13:32.861Z,5.17
2022-10-05T23:16:34.539Z,4.50
2022-10-05T23:19:38.878Z,4.90
2022-10-05T23:22:40.591Z,5.20
2022-10-05T23:25:42.355Z,5.10
2022-10-05T23:28:47.915Z,4.30
2022-10-05T23:31:49.610Z,4.37
2022-10-05T23:34:51.284Z,4.20
2022-10-05T23:37:53.000Z,4.43
2022-10-05T23:40:55.987Z,4.77
2022-10-05T23:43:57.602Z,5.30
2022-10-05T23:46:59.187Z,4.93
2022-10-05T23:50:00.951Z,4.47
2022-10-05T23:53:02.633Z,4.83
2022-10-05T23:56:04.774Z,5.07
2022-10-05T23:59:06.379Z,4.43
